< < Back
Terminal Aerodrome Forecast


Current Version              Previous Versions:   1  2  3  4  5  6  7  8  9  

Terminal Aerodrome Forecast

887
FTUS42 KTAE 011700
TAFABY
TAF
KABY 011740Z 0118/0218 18005KT P6SM FEW050
     FM020300 00000KT P6SM SKC
     FM021500 33005KT P6SM FEW040=

Latest METAR

273
SAUS70 KWBC 021200 RRA
MTRABY
METAR KABY 021153Z 00000KT 10SM CLR 23/23 A3012 RMK AO2 SLP197 6////
7//// T02330228 10250 20228 51024 PNO $


USA.gov is the U.S. government's official web portal to all federal, state and local government web resources and services.